createdAt,value
2018-06-16T01:17:35.327Z,708.93
2018-06-16T01:20:17.755Z,738.47
2018-06-16T01:23:02.304Z,515.03
2018-06-16T01:25:44.203Z,619.90
2018-06-16T01:28:28.238Z,746.53
2018-06-16T01:31:13.003Z,873.17
2018-06-16T01:34:00.178Z,902.27
2018-06-16T01:36:43.038Z,818.30
2018-06-16T01:39:26.250Z,929.70
2018-06-16T01:42:09.302Z,898.10
2018-06-16T01:44:50.518Z,924.57
2018-06-16T01:47:32.702Z,923.03
2018-06-16T01:50:15.863Z,917.40
2018-06-16T01:52:57.884Z,885.47
2018-06-16T01:55:38.285Z,872.60
2018-06-16T01:58:19.638Z,876.77
2018-06-16T02:01:04.047Z,826.30
2018-06-16T02:03:53.475Z,824.57
2018-06-16T02:06:37.201Z,837.63
2018-06-16T02:09:17.925Z,806.50
2018-06-16T02:12:00.782Z,797.47
2018-06-16T02:14:43.601Z,814.77
2018-06-16T02:17:28.760Z,792.40
2018-06-16T02:20:08.523Z,780.77
2018-06-16T02:22:48.938Z,613.47
2018-06-16T02:25:34.799Z,811.97
2018-06-16T02:28:19.179Z,845.30
2018-06-16T02:31:02.698Z,768.53
2018-06-16T02:33:44.182Z,762.80
2018-06-16T02:36:27.117Z,700.83
2018-06-16T02:39:11.025Z,750.07
2018-06-16T02:41:57.682Z,740.17
2018-06-16T02:44:38.738Z,654.77
2018-06-16T02:47:19.060Z,546.87
2018-06-16T02:50:00.558Z,515.27
2018-06-16T02:52:49.203Z,388.93
2018-06-16T02:55:31.505Z,309.53
2018-06-16T02:58:11.839Z,388.90
2018-06-16T03:00:56.700Z,287.33
2018-06-16T03:03:45.220Z,416.23
2018-06-16T03:06:28.177Z,600.00
2018-06-16T03:09:11.498Z,580.53
2018-06-16T03:11:52.041Z,649.30
2018-06-16T03:14:35.143Z,620.70
2018-06-16T03:17:18.484Z,642.73
2018-06-16T03:20:03.316Z,559.30
2018-06-16T03:22:43.799Z,467.73
2018-06-16T03:25:26.629Z,477.47
2018-06-16T03:28:11.805Z,418.10
2018-06-16T03:30:56.659Z,293.10
2018-06-16T03:33:40.977Z,261.17
2018-06-16T03:36:25.399Z,222.53
2018-06-16T03:39:09.646Z,233.60
2018-06-16T03:41:51.701Z,264.23
2018-06-16T03:44:32.581Z,251.27
2018-06-16T03:47:13.739Z,249.90
2018-06-16T03:50:02.878Z,226.50
2018-06-16T03:52:45.942Z,207.67
2018-06-16T03:55:29.099Z,324.90
2018-06-16T03:58:10.441Z,223.90
2018-06-16T04:00:53.864Z,199.23
2018-06-16T04:03:36.303Z,221.83
2018-06-16T04:06:20.719Z,237.27
2018-06-16T04:09:04.900Z,262.20
2018-06-16T04:11:47.747Z,349.50
2018-06-16T04:14:31.202Z,340.80
2018-06-16T04:17:18.263Z,414.53
2018-06-16T04:20:01.377Z,415.10
2018-06-16T04:22:45.225Z,529.00
2018-06-16T04:25:24.604Z,607.63
2018-06-16T04:28:03.465Z,620.87
2018-06-16T04:30:44.138Z,678.83
2018-06-16T04:33:27.000Z,652.47
2018-06-16T04:36:10.009Z,741.50
2018-06-16T04:38:53.505Z,693.73
2018-06-16T04:41:34.135Z,807.87
2018-06-16T04:44:16.365Z,950.93
2018-06-16T04:46:59.358Z,1010.13
2018-06-16T04:49:39.699Z,1040.10
2018-06-16T04:52:20.004Z,1050.33
2018-06-16T04:55:01.759Z,938.90
2018-06-16T04:57:43.657Z,1021.90
2018-06-16T05:00:24.607Z,1012.33
2018-06-16T05:03:05.401Z,995.73
2018-06-16T05:05:48.135Z,1037.30
2018-06-16T05:08:33.358Z,1040.57
2018-06-16T05:11:14.059Z,1058.33
2018-06-16T05:13:55.959Z,1030.17
2018-06-16T05:16:36.018Z,1071.33
2018-06-16T05:19:15.798Z,1047.30
2018-06-16T05:21:57.335Z,1094.50
2018-06-16T05:24:38.558Z,1057.63
2018-06-16T05:27:19.000Z,860.33
2018-06-16T05:29:58.602Z,712.20
2018-06-16T05:32:44.465Z,340.77
2018-06-16T05:35:24.503Z,367.63
2018-06-16T05:38:06.940Z,428.50
2018-06-16T05:40:50.002Z,470.97
2018-06-16T05:43:29.919Z,673.67
2018-06-16T05:46:07.917Z,664.20
2018-06-16T05:48:51.064Z,729.93
2018-06-16T05:51:32.405Z,771.97
2018-06-16T05:54:12.463Z,789.50
2018-06-16T05:56:52.556Z,769.73
2018-06-16T05:59:30.081Z,761.83
2018-06-16T06:02:11.155Z,780.20
2018-06-16T06:04:52.357Z,625.97
2018-06-16T06:07:30.640Z,596.67
2018-06-16T06:10:09.871Z,482.33
2018-06-16T06:12:48.720Z,519.23
2018-06-16T06:15:30.558Z,583.20
2018-06-16T06:18:10.187Z,479.03
2018-06-16T06:20:50.156Z,834.67
2018-06-16T06:23:32.715Z,697.27
2018-06-16T06:26:12.285Z,97.87
2018-06-16T06:28:51.218Z,82.20
2018-06-16T06:31:31.482Z,262.40
2018-06-16T06:34:11.082Z,728.73
2018-06-16T06:36:52.639Z,596.60
2018-06-16T06:39:32.937Z,664.23
2018-06-16T06:42:14.544Z,439.03
2018-06-16T06:44:51.797Z,509.33
2018-06-16T06:47:33.177Z,718.17
2018-06-16T06:50:16.903Z,1308.03
2018-06-16T06:52:54.799Z,402.83
2018-06-16T06:55:36.703Z,1329.10
2018-06-16T06:58:16.221Z,1456.17
2018-06-16T07:00:55.006Z,1382.80
2018-06-16T07:03:35.337Z,1259.40
2018-06-16T07:06:15.720Z,1112.33
2018-06-16T07:08:54.300Z,940.93
2018-06-16T07:11:35.119Z,53.43
2018-06-16T07:14:14.985Z,82.67
2018-06-16T07:16:56.281Z,86.27
2018-06-16T07:19:36.597Z,51.80
2018-06-16T07:22:16.459Z,68.10
2018-06-16T07:24:55.662Z,50.23
2018-06-16T07:27:35.864Z,82.80
2018-06-16T07:30:13.560Z,54.93
2018-06-16T07:32:53.580Z,75.90
2018-06-16T07:35:34.541Z,56.90
2018-06-16T07:38:13.503Z,50.35
2018-06-16T07:40:53.520Z,48.05
2018-06-16T07:43:33.937Z,130.47
2018-06-16T07:46:15.555Z,148.82
2018-06-16T07:48:58.365Z,125.20
2018-06-16T07:51:36.744Z,84.65
2018-06-16T07:54:17.723Z,86.08
2018-06-16T07:57:00.081Z,81.72
2018-06-16T07:59:42.342Z,87.45
2018-06-16T08:02:21.264Z,74.92
2018-06-16T08:05:00.261Z,68.78
2018-06-16T08:07:50.666Z,66.07
2018-06-16T08:10:39.482Z,64.70
2018-06-16T08:13:22.559Z,71.50
2018-06-16T08:16:03.124Z,73.70
2018-06-16T08:18:45.009Z,74.70
2018-06-16T08:21:23.719Z,83.62
2018-06-16T08:24:04.458Z,86.95
2018-06-16T08:26:45.260Z,98.47
2018-06-16T08:29:26.442Z,101.22
2018-06-16T08:32:06.769Z,91.35
2018-06-16T08:34:45.622Z,95.28
2018-06-16T08:37:24.502Z,96.57
2018-06-16T08:40:03.263Z,98.82
2018-06-16T08:42:41.223Z,103.92
2018-06-16T08:45:20.839Z,118.47
2018-06-16T08:48:03.803Z,122.62
2018-06-16T08:50:42.583Z,150.12
2018-06-16T08:53:21.306Z,149.57
2018-06-16T08:55:58.942Z,131.18
2018-06-16T08:58:38.525Z,128.50
2018-06-16T09:01:17.719Z,71.47
2018-06-16T09:03:55.724Z,64.50
2018-06-16T09:06:32.159Z,63.85
2018-06-16T09:09:14.101Z,45.17
2018-06-16T09:11:53.163Z,38.55
2018-06-16T09:14:33.233Z,47.48
2018-06-16T09:17:12.401Z,89.80
2018-06-16T09:19:51.497Z,110.88
2018-06-16T09:22:29.924Z,131.90
2018-06-16T09:25:09.229Z,127.75
2018-06-16T09:27:49.265Z,115.45
2018-06-16T09:30:29.564Z,99.30
2018-06-16T09:33:19.441Z,57.62
2018-06-16T09:36:06.532Z,102.30
2018-06-16T09:38:45.540Z,50.03
2018-06-16T09:41:29.161Z,54.40
2018-06-16T09:44:10.220Z,198.53
2018-06-16T09:46:50.538Z,48.70
2018-06-16T09:49:33.964Z,70.67
2018-06-16T09:52:13.602Z,139.50
2018-06-16T09:54:55.355Z,80.95
2018-06-16T09:57:36.758Z,55.17
2018-06-16T10:00:21.418Z,127.70
2018-06-16T10:03:04.960Z,83.05
2018-06-16T10:05:44.982Z,147.02
2018-06-16T10:08:24.883Z,171.18
2018-06-16T10:11:04.639Z,149.65
2018-06-16T10:13:49.378Z,176.72
2018-06-16T10:16:32.260Z,156.20
2018-06-16T10:19:10.685Z,129.47
2018-06-16T10:21:50.355Z,108.25
2018-06-16T10:24:40.879Z,53.35
2018-06-16T10:27:22.782Z,80.90
2018-06-16T10:30:02.835Z,48.95
2018-06-16T10:32:47.081Z,42.85
2018-06-16T10:35:34.724Z,38.15
2018-06-16T10:38:15.647Z,34.73
2018-06-16T10:40:54.962Z,35.85
2018-06-16T10:43:36.247Z,34.80
2018-06-16T10:46:26.595Z,33.08
2018-06-16T10:49:05.784Z,33.10
2018-06-16T10:51:48.544Z,33.08
2018-06-16T10:54:26.541Z,32.75
2018-06-16T10:57:05.237Z,36.50
2018-06-16T10:59:51.299Z,43.15
2018-06-16T11:02:32.981Z,53.08
2018-06-16T11:05:12.256Z,64.90
2018-06-16T11:07:55.998Z,71.50
2018-06-16T11:10:35.343Z,58.80
2018-06-16T11:13:14.260Z,56.10
2018-06-16T11:16:00.622Z,64.60
2018-06-16T11:18:41.958Z,70.30
2018-06-16T11:21:19.443Z,61.77
2018-06-16T11:24:04.962Z,79.67
2018-06-16T11:26:44.522Z,79.45
2018-06-16T11:29:23.860Z,54.70
2018-06-16T11:32:12.301Z,94.72
2018-06-16T11:34:54.840Z,65.42
2018-06-16T11:37:35.239Z,71.12
2018-06-16T11:40:22.159Z,66.45
2018-06-16T11:43:06.125Z,102.53
2018-06-16T11:45:44.659Z,58.45
2018-06-16T11:48:25.456Z,59.13
2018-06-16T11:51:05.440Z,62.48
2018-06-16T11:53:44.926Z,80.87
2018-06-16T11:56:24.598Z,73.25
2018-06-16T12:19:44.985Z,88.05
2018-06-16T12:22:27.376Z,57.80
2018-06-16T12:25:09.484Z,53.68
2018-06-16T12:27:47.687Z,62.27
2018-06-16T12:30:25.858Z,51.60
2018-06-16T12:33:03.957Z,49.55
2018-06-16T12:35:42.600Z,49.08
2018-06-16T12:38:22.635Z,42.75
2018-06-16T12:41:01.982Z,48.58
2018-06-16T12:43:43.217Z,43.23
2018-06-16T12:46:25.521Z,44.48
2018-06-16T12:49:05.894Z,33.25
2018-06-16T12:51:47.543Z,36.63
2018-06-16T12:54:27.105Z,32.63
2018-06-16T12:57:13.338Z,33.48
2018-06-16T12:59:58.180Z,34.88
2018-06-16T13:02:37.103Z,43.20
2018-06-16T13:05:18.520Z,42.17
2018-06-16T13:08:03.460Z,46.48
2018-06-16T13:10:45.050Z,47.65
2018-06-16T13:13:23.640Z,47.85
2018-06-16T13:16:07.402Z,45.48
2018-06-16T13:18:46.198Z,45.65
2018-06-16T13:21:27.738Z,47.27
2018-06-16T13:24:07.035Z,49.05
2018-06-16T13:26:46.340Z,46.88
2018-06-16T13:29:27.235Z,44.03
2018-06-16T13:32:07.022Z,39.75
2018-06-16T13:34:46.997Z,34.73
2018-06-16T13:37:24.980Z,35.25
2018-06-16T13:40:07.244Z,45.92
2018-06-16T13:42:52.981Z,48.48
2018-06-16T13:45:31.622Z,52.08
2018-06-16T13:48:14.198Z,46.48
2018-06-16T13:50:59.220Z,65.85
2018-06-16T13:53:37.780Z,59.53
2018-06-16T13:56:15.795Z,43.58
2018-06-16T13:58:55.368Z,44.03
2018-06-16T14:01:37.002Z,49.58
2018-06-16T14:04:15.179Z,40.73
2018-06-16T14:06:53.559Z,43.02
2018-06-16T14:09:33.761Z,41.98
2018-06-16T14:53:42.858Z,34.10
2018-06-16T14:56:22.478Z,37.88
2018-06-16T16:22:10.858Z,41.73
2018-06-16T16:24:52.662Z,37.98
2018-06-16T16:27:35.209Z,38.13
2018-06-16T16:30:15.704Z,46.18
2018-06-16T16:32:56.838Z,44.40
2018-06-16T16:35:38.146Z,49.18
2018-06-16T16:38:16.763Z,61.35
2018-06-16T16:41:00.058Z,101.85
2018-06-16T16:43:43.561Z,90.00
2018-06-16T16:46:32.642Z,88.25
2018-06-16T16:49:12.377Z,150.90
2018-06-16T16:51:57.182Z,76.57
2018-06-16T16:54:39.168Z,89.58
2018-06-16T16:57:23.779Z,161.47
2018-06-16T17:00:05.421Z,181.02
2018-06-16T17:02:45.535Z,120.97
2018-06-16T17:05:28.045Z,63.75
2018-06-16T17:08:10.978Z,72.85
2018-06-16T17:10:53.581Z,142.50
2018-06-16T17:13:31.601Z,82.30
2018-06-16T17:16:16.504Z,82.80
2018-06-16T17:18:57.341Z,90.40
2018-06-16T17:21:37.079Z,121.47
2018-06-16T17:24:19.781Z,144.75
2018-06-16T17:27:06.240Z,125.22
2018-06-16T17:29:46.642Z,141.80
2018-06-16T17:32:30.945Z,120.87
2018-06-16T17:35:12.544Z,143.32
2018-06-16T17:38:05.147Z,148.85
2018-06-16T17:40:44.538Z,110.63
2018-06-16T17:43:24.027Z,138.57
2018-06-16T17:46:08.624Z,163.87
2018-06-16T17:48:53.762Z,83.90
2018-06-16T17:57:38.477Z,60.60
2018-06-16T18:00:21.100Z,47.10
2018-06-16T18:03:05.644Z,47.73
2018-06-16T18:05:46.920Z,83.97
2018-06-16T18:08:28.399Z,337.23
2018-06-16T18:11:23.123Z,610.60
2018-06-16T18:14:14.843Z,761.27
2018-06-16T18:16:57.782Z,814.90
2018-06-16T18:19:37.006Z,337.73
2018-06-16T18:22:16.204Z,619.67
2018-06-16T18:25:08.700Z,523.33
2018-06-16T18:27:53.344Z,427.03
2018-06-16T18:30:34.325Z,553.97
2018-06-16T18:33:15.738Z,568.70
2018-06-16T18:35:53.805Z,540.40
2018-06-16T18:38:31.817Z,466.40
2018-06-16T18:41:14.462Z,427.17
2018-06-16T18:43:56.403Z,357.93
2018-06-16T18:46:34.739Z,263.30
2018-06-16T18:49:25.396Z,99.80
2018-06-16T18:52:08.322Z,105.37
2018-06-16T18:54:51.888Z,114.90
2018-06-16T18:57:35.980Z,127.03
2018-06-16T19:00:22.260Z,146.20
2018-06-16T19:03:14.360Z,154.37
2018-06-16T19:05:58.421Z,95.50
2018-06-16T19:08:44.121Z,66.33
2018-06-16T19:56:08.659Z,108.57
2018-06-16T21:19:34.361Z,1999.90
2018-06-16T21:22:15.661Z,1999.90
2018-06-16T21:24:58.701Z,1999.90
2018-06-16T21:27:40.341Z,1999.90
2018-06-16T21:30:24.844Z,1999.90
2018-06-16T21:33:09.081Z,1999.90
2018-06-16T21:35:50.424Z,1933.80
2018-06-16T21:38:34.940Z,1715.93
2018-06-16T21:41:16.358Z,1671.00
2018-06-16T21:43:58.557Z,1780.43
2018-06-16T21:46:41.419Z,1723.80
2018-06-16T21:49:20.624Z,1637.53
2018-06-16T21:52:00.822Z,1597.27
2018-06-16T21:54:40.380Z,1927.37
2018-06-16T21:57:21.900Z,1739.97
2018-06-16T22:00:03.741Z,1693.83
2018-06-16T22:02:42.905Z,1795.57
2018-06-16T22:05:26.296Z,1999.90
2018-06-16T22:08:10.816Z,1999.90
2018-06-16T22:10:53.583Z,1694.77
2018-06-16T22:32:35.733Z,1564.90
2018-06-16T22:35:16.534Z,1147.67
2018-06-16T22:37:57.830Z,1045.63
2018-06-16T22:40:37.795Z,1121.73
2018-06-16T22:43:17.895Z,1076.73
2018-06-16T23:57:41.556Z,680.00
